createdAt,value
2022-11-29T00:00:28.780Z,93.60
2022-11-29T00:03:31.975Z,93.33
2022-11-29T00:06:35.345Z,93.21
2022-11-29T00:09:37.870Z,93.08
2022-11-29T00:12:40.443Z,93.21
2022-11-29T00:15:43.199Z,93.42
2022-11-29T00:18:45.722Z,93.57
2022-11-29T00:21:48.171Z,93.63
2022-11-29T00:24:51.099Z,94.08
2022-11-29T00:27:53.551Z,93.92
2022-11-29T00:30:56.219Z,94.10
2022-11-29T00:34:00.799Z,94.47
2022-11-29T00:37:03.475Z,94.33
2022-11-29T00:40:08.184Z,94.45
2022-11-29T00:43:10.574Z,94.68
2022-11-29T00:46:13.147Z,94.97
2022-11-29T00:49:15.744Z,94.80
2022-11-29T00:52:18.145Z,95.59
2022-11-29T00:55:20.572Z,95.00
2022-11-29T00:58:23.256Z,94.70
2022-11-29T01:01:25.842Z,94.64
2022-11-29T01:04:28.487Z,94.35
2022-11-29T01:07:30.946Z,94.21
2022-11-29T01:10:33.730Z,93.31
2022-11-29T01:13:36.316Z,93.89
2022-11-29T01:16:38.682Z,94.10
2022-11-29T01:19:43.145Z,94.11
2022-11-29T01:22:48.870Z,94.34
2022-11-29T01:26:03.827Z,94.13
2022-11-29T01:29:06.396Z,94.27
2022-11-29T01:32:08.844Z,94.32
2022-11-29T01:35:11.315Z,94.51
2022-11-29T01:38:13.765Z,94.07
2022-11-29T01:41:24.429Z,94.10
2022-11-29T01:44:26.755Z,94.32
2022-11-29T01:47:29.575Z,93.59
2022-11-29T01:50:32.316Z,93.59
2022-11-29T01:53:34.752Z,93.10
2022-11-29T01:56:38.218Z,93.13
2022-11-29T01:59:47.164Z,93.63
2022-11-29T02:02:56.819Z,93.27
2022-11-29T02:05:59.306Z,93.46
2022-11-29T02:09:02.127Z,93.41
2022-11-29T02:12:32.304Z,93.71
2022-11-29T02:15:56.985Z,94.14
2022-11-29T02:19:22.655Z,93.97
2022-11-29T02:22:31.201Z,93.60
2022-11-29T02:25:41.579Z,93.86
2022-11-29T02:28:46.956Z,93.52
2022-11-29T02:32:26.661Z,93.18
2022-11-29T02:36:00.408Z,93.43
2022-11-29T02:39:02.798Z,93.32
2022-11-29T02:42:55.672Z,93.09
2022-11-29T02:46:10.883Z,93.07
2022-11-29T02:49:22.508Z,91.77
2022-11-29T02:52:36.728Z,92.20
2022-11-29T02:56:11.053Z,92.83
2022-11-29T02:59:29.747Z,92.69
2022-11-29T03:02:59.732Z,92.75
2022-11-29T03:06:18.982Z,91.01
2022-11-29T03:09:42.896Z,90.76
2022-11-29T03:12:48.068Z,91.77
2022-11-29T03:16:22.731Z,92.55
2022-11-29T03:19:49.940Z,92.37
2022-11-29T03:22:52.276Z,92.72
2022-11-29T03:26:00.083Z,92.38
2022-11-29T03:29:10.027Z,92.51
2022-11-29T03:32:28.885Z,92.33
2022-11-29T03:35:40.812Z,92.45
2022-11-29T03:38:45.837Z,90.90
2022-11-29T03:42:02.422Z,91.08
2022-11-29T03:45:19.908Z,90.95
2022-11-29T03:48:38.067Z,91.68
2022-11-29T03:51:55.751Z,92.24
2022-11-29T03:55:12.952Z,92.00
2022-11-29T03:58:28.514Z,92.16
2022-11-29T04:02:01.631Z,92.27
2022-11-29T04:05:28.549Z,92.32
2022-11-29T04:08:57.984Z,92.29
2022-11-29T04:12:38.404Z,91.63
2022-11-29T04:15:57.970Z,91.29
2022-11-29T04:19:09.417Z,93.04
2022-11-29T04:22:28.625Z,94.73
2022-11-29T04:25:46.734Z,94.76
2022-11-29T04:28:58.055Z,93.10
2022-11-29T04:32:00.444Z,93.37
2022-11-29T04:35:18.572Z,95.08
2022-11-29T04:38:30.063Z,96.04
2022-11-29T04:41:39.766Z,95.54
2022-11-29T04:44:48.365Z,94.90
2022-11-29T04:48:14.875Z,94.66
2022-11-29T04:51:43.466Z,95.19
2022-11-29T04:55:13.221Z,95.07
2022-11-29T04:58:37.905Z,94.90
2022-11-29T05:01:59.210Z,95.06
2022-11-29T05:05:27.537Z,95.37
2022-11-29T05:08:45.038Z,95.45
2022-11-29T05:12:00.812Z,95.33
2022-11-29T05:15:37.131Z,95.15
2022-11-29T05:18:57.839Z,95.65
2022-11-29T05:22:18.912Z,95.55
2022-11-29T05:25:31.776Z,95.38
2022-11-29T05:28:49.948Z,95.84
2022-11-29T05:32:29.748Z,95.60
2022-11-29T05:35:41.037Z,95.26
2022-11-29T05:39:05.199Z,94.65
2022-11-29T05:42:33.625Z,94.11
2022-11-29T05:45:44.481Z,95.38
2022-11-29T05:48:59.444Z,95.34
2022-11-29T05:52:22.170Z,94.57
2022-11-29T05:55:48.530Z,93.97
2022-11-29T05:59:01.382Z,94.81
2022-11-29T06:02:31.345Z,95.03
2022-11-29T06:05:42.120Z,94.96
2022-11-29T06:09:00.507Z,94.80
2022-11-29T06:12:35.038Z,94.57
2022-11-29T06:15:56.765Z,95.92
2022-11-29T06:19:21.080Z,95.74
2022-11-29T06:22:47.494Z,94.89
2022-11-29T06:26:03.481Z,95.68
2022-11-29T06:29:43.832Z,96.32
2022-11-29T06:32:56.909Z,95.81
2022-11-29T06:36:16.276Z,95.98
2022-11-29T06:39:18.956Z,95.96
2022-11-29T06:42:21.491Z,95.45
2022-11-29T06:45:24.187Z,95.25
2022-11-29T06:48:28.356Z,94.75
2022-11-29T06:51:41.242Z,94.75
2022-11-29T06:54:56.719Z,94.39
2022-11-29T06:58:09.652Z,94.49
2022-11-29T07:01:50.264Z,93.98
2022-11-29T07:05:11.404Z,94.33
2022-11-29T07:08:20.119Z,94.19
2022-11-29T07:11:22.883Z,94.57
2022-11-29T07:14:25.722Z,94.53
2022-11-29T07:17:49.848Z,94.67
2022-11-29T07:21:02.402Z,94.84
2022-11-29T07:24:19.805Z,94.79
2022-11-29T07:27:28.283Z,94.86
2022-11-29T07:30:57.913Z,94.89
2022-11-29T07:34:31.586Z,95.19
2022-11-29T07:37:50.439Z,94.29
2022-11-29T07:41:00.576Z,94.23
2022-11-29T07:44:17.344Z,93.22
2022-11-29T07:47:19.812Z,93.09
2022-11-29T07:50:22.394Z,93.08
2022-11-29T07:53:25.061Z,92.97
2022-11-29T07:56:27.595Z,92.79
2022-11-29T07:59:30.043Z,90.67
2022-11-29T08:02:32.814Z,90.63
2022-11-29T08:05:36.288Z,90.30
2022-11-29T08:08:43.672Z,90.46
2022-11-29T08:12:22.716Z,89.85
2022-11-29T08:15:25.945Z,90.71
2022-11-29T08:18:28.420Z,89.04
2022-11-29T08:21:30.884Z,87.96
2022-11-29T08:24:33.368Z,86.37
2022-11-29T08:27:36.990Z,84.94
2022-11-29T08:30:39.592Z,84.20
2022-11-29T08:33:43.449Z,84.36
2022-11-29T08:36:46.080Z,84.41
2022-11-29T08:39:48.537Z,84.20
2022-11-29T08:42:51.023Z,83.58
2022-11-29T08:45:53.402Z,82.51
2022-11-29T08:48:55.845Z,82.29
2022-11-29T08:52:17.267Z,82.23
2022-11-29T08:55:21.047Z,81.56
2022-11-29T08:58:24.133Z,80.34
2022-11-29T09:01:29.381Z,81.02
2022-11-29T09:04:32.159Z,79.90
2022-11-29T09:07:34.800Z,78.03
2022-11-29T09:10:39.667Z,77.88
2022-11-29T09:13:43.947Z,77.67
2022-11-29T09:16:46.501Z,78.16
2022-11-29T09:19:49.219Z,77.56
2022-11-29T09:22:51.847Z,77.50
2022-11-29T09:25:56.428Z,76.26
2022-11-29T09:29:01.411Z,75.15
2022-11-29T09:32:04.154Z,76.82
2022-11-29T09:35:06.988Z,75.15
2022-11-29T09:38:13.086Z,74.50
2022-11-29T09:41:48.363Z,74.58
2022-11-29T09:44:57.238Z,74.73
2022-11-29T09:48:17.831Z,74.83
2022-11-29T09:51:25.375Z,74.82
2022-11-29T09:54:39.724Z,74.43
2022-11-29T09:57:44.119Z,74.72
2022-11-29T10:00:58.649Z,73.91
2022-11-29T10:04:09.058Z,73.18
2022-11-29T10:07:21.996Z,73.32
2022-11-29T10:10:37.821Z,73.66
2022-11-29T10:13:45.067Z,71.86
2022-11-29T10:16:54.547Z,73.09
2022-11-29T10:20:13.495Z,73.02
2022-11-29T10:23:30.388Z,71.67
2022-11-29T10:26:35.325Z,72.25
2022-11-29T10:29:38.931Z,73.31
2022-11-29T10:32:42.753Z,71.96
2022-11-29T10:35:48.683Z,71.06
2022-11-29T10:38:53.195Z,71.66
2022-11-29T10:41:59.583Z,70.13
2022-11-29T10:45:02.483Z,71.27
2022-11-29T10:48:14.728Z,70.90
2022-11-29T10:51:17.821Z,70.34
2022-11-29T10:54:37.345Z,69.70
2022-11-29T10:58:09.724Z,68.14
2022-11-29T11:01:13.474Z,69.58
2022-11-29T11:04:21.816Z,68.99
2022-11-29T11:07:38.592Z,69.39
2022-11-29T11:10:41.441Z,70.23
2022-11-29T11:13:43.951Z,69.90
2022-11-29T11:16:46.427Z,69.57
2022-11-29T11:20:08.444Z,70.83
2022-11-29T11:23:30.959Z,69.43
2022-11-29T11:26:44.364Z,70.28
2022-11-29T11:29:47.126Z,68.92
2022-11-29T11:33:26.021Z,69.95
2022-11-29T11:36:28.416Z,69.11
2022-11-29T11:39:32.230Z,67.79
2022-11-29T11:42:38.960Z,67.82
2022-11-29T11:45:41.375Z,67.57
2022-11-29T11:48:43.744Z,68.79
2022-11-29T11:51:46.979Z,69.14
2022-11-29T11:54:54.645Z,69.63
2022-11-29T11:58:12.468Z,68.16
2022-11-29T12:01:37.611Z,69.03
2022-11-29T12:04:41.014Z,68.67
2022-11-29T12:11:12.069Z,69.57
2022-11-29T12:14:31.377Z,69.23
2022-11-29T12:17:36.799Z,68.70
2022-11-29T12:20:44.620Z,68.25
2022-11-29T12:23:54.976Z,68.70
2022-11-29T12:27:03.995Z,68.98
2022-11-29T12:30:12.956Z,67.83
2022-11-29T12:33:21.996Z,66.92
2022-11-29T12:36:33.401Z,63.40
2022-11-29T12:39:52.703Z,63.94
2022-11-29T12:43:01.138Z,64.17
2022-11-29T12:46:28.405Z,63.60
2022-11-29T12:49:40.786Z,63.74
2022-11-29T12:53:26.738Z,64.05
2022-11-29T12:56:56.000Z,62.90
2022-11-29T13:00:08.763Z,62.19
2022-11-29T13:03:25.105Z,62.63
2022-11-29T13:07:00.051Z,62.88
2022-11-29T13:10:02.739Z,65.30
2022-11-29T13:13:37.602Z,65.54
2022-11-29T13:16:49.186Z,66.71
2022-11-29T13:19:56.930Z,66.69
2022-11-29T13:23:45.911Z,66.78
2022-11-29T13:26:56.625Z,68.20
2022-11-29T13:30:00.131Z,68.66
2022-11-29T13:33:17.776Z,68.61
2022-11-29T13:36:23.283Z,69.09
2022-11-29T13:39:44.604Z,68.79
2022-11-29T13:42:58.385Z,69.16
2022-11-29T13:46:19.743Z,68.68
2022-11-29T13:49:57.424Z,69.30
2022-11-29T13:53:29.862Z,68.77
2022-11-29T13:56:46.003Z,67.86
2022-11-29T13:59:49.409Z,66.15
2022-11-29T14:02:51.918Z,66.06
2022-11-29T14:06:18.832Z,67.29
2022-11-29T14:09:27.284Z,69.62
2022-11-29T14:12:49.045Z,70.37
2022-11-29T14:15:59.888Z,71.38
2022-11-29T14:19:08.443Z,71.41
2022-11-29T14:22:21.236Z,72.14
2022-11-29T14:25:50.452Z,72.29
2022-11-29T14:28:57.346Z,72.42
2022-11-29T14:31:59.942Z,72.34
2022-11-29T14:35:15.720Z,73.10
2022-11-29T14:38:24.024Z,72.88
2022-11-29T14:41:30.121Z,73.46
2022-11-29T14:44:33.764Z,73.55
2022-11-29T14:47:38.943Z,73.94
2022-11-29T14:50:42.219Z,74.29
2022-11-29T14:53:46.117Z,75.16
2022-11-29T14:56:48.580Z,74.76
2022-11-29T14:59:52.795Z,74.96
2022-11-29T15:03:06.406Z,75.77
2022-11-29T15:06:16.047Z,76.00
2022-11-29T15:09:21.184Z,75.56
2022-11-29T15:12:28.246Z,75.14
2022-11-29T15:15:53.463Z,75.81
2022-11-29T15:19:21.365Z,76.92
2022-11-29T15:22:46.499Z,76.20
2022-11-29T15:25:52.989Z,77.27
2022-11-29T15:29:13.288Z,76.75
2022-11-29T15:32:24.060Z,77.48
2022-11-29T15:35:26.698Z,77.84
2022-11-29T15:38:29.137Z,77.83
2022-11-29T15:41:34.752Z,78.39
2022-11-29T15:44:37.549Z,78.50
2022-11-29T15:47:39.913Z,79.30
2022-11-29T15:50:56.577Z,79.53
2022-11-29T15:54:12.688Z,80.09
2022-11-29T15:57:34.071Z,80.58
2022-11-29T16:00:36.933Z,80.75
2022-11-29T16:03:41.150Z,80.88
2022-11-29T16:06:44.346Z,81.74
2022-11-29T16:09:54.345Z,81.65
2022-11-29T16:12:58.932Z,81.98
2022-11-29T16:16:07.821Z,82.22
2022-11-29T16:19:19.866Z,81.65
2022-11-29T16:22:24.704Z,81.01
2022-11-29T16:25:27.985Z,80.02
2022-11-29T16:28:35.329Z,79.51
2022-11-29T16:31:38.355Z,78.85
2022-11-29T16:34:42.804Z,78.58
2022-11-29T16:37:46.442Z,78.79
2022-11-29T16:41:39.890Z,78.59
2022-11-29T16:44:46.905Z,79.11
2022-11-29T16:47:59.925Z,78.09
2022-11-29T16:51:13.370Z,77.84
2022-11-29T16:54:22.085Z,79.06
2022-11-29T16:57:25.654Z,79.06
2022-11-29T17:00:33.303Z,79.59
2022-11-29T17:03:35.838Z,79.51
2022-11-29T17:06:38.240Z,79.37
2022-11-29T17:09:40.990Z,79.14
2022-11-29T17:12:48.085Z,79.59
2022-11-29T17:15:51.090Z,79.78
2022-11-29T17:18:53.839Z,79.99
2022-11-29T17:21:56.342Z,79.85
2022-11-29T17:25:00.002Z,80.23
2022-11-29T17:28:02.980Z,80.24
2022-11-29T17:31:13.760Z,79.87
2022-11-29T17:34:16.686Z,79.42
2022-11-29T17:37:19.528Z,79.27
2022-11-29T17:40:22.286Z,79.34
2022-11-29T17:43:25.136Z,79.45
2022-11-29T17:46:31.407Z,78.42
2022-11-29T17:49:34.101Z,78.71
2022-11-29T17:52:37.065Z,77.97
2022-11-29T17:55:40.732Z,78.03
2022-11-29T17:58:43.988Z,80.26
2022-11-29T18:01:49.644Z,82.22
2022-11-29T18:04:53.433Z,83.47
2022-11-29T18:07:59.022Z,84.30
2022-11-29T18:11:06.796Z,84.98
2022-11-29T18:14:11.240Z,84.93
2022-11-29T18:17:13.905Z,85.72
2022-11-29T18:20:16.658Z,86.01
2022-11-29T18:23:19.599Z,85.73
2022-11-29T18:26:24.135Z,85.42
2022-11-29T18:29:26.723Z,85.33
2022-11-29T18:32:30.641Z,85.29
2022-11-29T18:35:33.257Z,84.94
2022-11-29T18:38:36.885Z,85.30
2022-11-29T18:41:41.426Z,85.37
2022-11-29T18:44:44.421Z,84.61
2022-11-29T18:47:47.576Z,84.33
2022-11-29T18:50:51.063Z,84.55
2022-11-29T18:53:53.748Z,84.80
2022-11-29T18:56:56.805Z,84.79
2022-11-29T18:59:59.444Z,85.11
2022-11-29T19:03:01.935Z,85.62
2022-11-29T19:06:06.734Z,85.94
2022-11-29T19:09:15.228Z,85.37
2022-11-29T19:12:17.916Z,84.49
2022-11-29T19:15:20.599Z,84.24
2022-11-29T19:18:23.330Z,82.90
2022-11-29T19:21:27.965Z,83.94
2022-11-29T19:24:30.657Z,84.33
2022-11-29T19:27:33.331Z,84.95
2022-11-29T19:30:36.123Z,84.23
2022-11-29T19:33:40.183Z,84.27
2022-11-29T19:36:44.428Z,84.23
2022-11-29T19:39:47.902Z,85.03
2022-11-29T19:42:52.317Z,84.74
2022-11-29T19:45:55.120Z,84.18
2022-11-29T19:49:00.997Z,83.72
2022-11-29T19:52:04.421Z,84.23
2022-11-29T19:55:06.968Z,84.77
2022-11-29T19:58:09.705Z,85.67
2022-11-29T20:01:13.801Z,86.08
2022-11-29T20:04:17.548Z,86.59
2022-11-29T20:07:21.439Z,85.88
2022-11-29T20:10:24.733Z,85.10
2022-11-29T20:13:27.416Z,84.25
2022-11-29T20:16:31.074Z,83.55
2022-11-29T20:19:34.112Z,83.70
2022-11-29T20:22:37.199Z,83.82
2022-11-29T20:25:39.930Z,84.21
2022-11-29T20:28:42.732Z,84.96
2022-11-29T20:31:50.295Z,85.97
2022-11-29T20:34:54.182Z,86.68
2022-11-29T20:38:08.545Z,86.55
2022-11-29T20:41:15.544Z,86.05
2022-11-29T20:44:21.799Z,85.53
2022-11-29T20:47:32.948Z,85.39
2022-11-29T20:50:36.011Z,84.87
2022-11-29T20:53:43.053Z,85.02
2022-11-29T20:56:45.721Z,85.53
2022-11-29T20:59:48.451Z,85.27
2022-11-29T21:02:51.208Z,84.96
2022-11-29T21:05:56.055Z,85.23
2022-11-29T21:08:58.840Z,84.38
2022-11-29T21:12:01.791Z,84.05
2022-11-29T21:15:04.743Z,83.65
2022-11-29T21:18:07.629Z,83.39
2022-11-29T21:21:33.260Z,83.89
2022-11-29T21:25:22.899Z,84.51
2022-11-29T21:28:30.470Z,84.76
2022-11-29T21:31:33.258Z,86.37
2022-11-29T21:34:35.743Z,86.18
2022-11-29T21:37:38.281Z,86.29
2022-11-29T21:40:40.929Z,86.80
2022-11-29T21:44:05.614Z,86.48
2022-11-29T21:47:05.869Z,86.61
2022-11-29T21:50:08.715Z,87.02
2022-11-29T21:53:11.149Z,86.91
2022-11-29T21:56:15.232Z,86.96
2022-11-29T21:59:17.753Z,87.00
2022-11-29T22:02:20.307Z,87.77
2022-11-29T22:05:22.817Z,87.51
2022-11-29T22:08:25.329Z,87.73
2022-11-29T22:11:36.296Z,88.66
2022-11-29T22:14:38.656Z,88.46
2022-11-29T22:17:41.444Z,88.70
2022-11-29T22:20:44.035Z,89.13
2022-11-29T22:23:46.724Z,88.40
2022-11-29T22:26:50.014Z,88.19
2022-11-29T22:29:52.400Z,88.32
2022-11-29T22:32:56.665Z,88.20
2022-11-29T22:36:17.174Z,88.61
2022-11-29T22:39:19.658Z,88.70
2022-11-29T22:42:22.731Z,89.28
2022-11-29T22:45:25.117Z,89.31
2022-11-29T22:48:27.645Z,88.74
2022-11-29T22:51:35.077Z,88.94
2022-11-29T22:54:37.517Z,88.72
2022-11-29T22:57:39.939Z,88.85
2022-11-29T23:00:46.500Z,88.87
2022-11-29T23:03:56.261Z,88.49
2022-11-29T23:06:58.741Z,87.89
2022-11-29T23:10:01.306Z,88.64
2022-11-29T23:13:03.759Z,89.24
2022-11-29T23:16:08.770Z,89.19
2022-11-29T23:19:11.432Z,89.27
2022-11-29T23:22:14.199Z,89.28
2022-11-29T23:25:16.597Z,89.04
2022-11-29T23:28:19.093Z,88.69
2022-11-29T23:31:22.368Z,89.41
2022-11-29T23:34:24.867Z,89.78
2022-11-29T23:37:27.315Z,90.11
2022-11-29T23:40:29.765Z,90.16
2022-11-29T23:43:35.498Z,89.72
2022-11-29T23:46:37.907Z,88.86
2022-11-29T23:49:40.399Z,87.90
2022-11-29T23:52:42.756Z,87.13
2022-11-29T23:55:47.932Z,86.29
2022-11-29T23:58:50.415Z,85.66
